sensor_id;sensor_type;location;lat;lon;timestamp;P1;durP1;ratioP1;P2;durP2;ratioP2
15679;SDS011;15488;48.114;11.532;2023-09-19T00:00:19;2.00;;;0.90;;
15679;SDS011;15488;48.114;11.532;2023-09-19T00:02:51;1.27;;;0.70;;
15679;SDS011;15488;48.114;11.532;2023-09-19T00:05:19;1.67;;;0.60;;
15679;SDS011;15488;48.114;11.532;2023-09-19T00:07:49;0.70;;;0.70;;
15679;SDS011;15488;48.114;11.532;2023-09-19T00:10:19;1.00;;;0.80;;
15679;SDS011;15488;48.114;11.532;2023-09-19T00:12:50;2.20;;;0.53;;
15679;SDS011;15488;48.114;11.532;2023-09-19T00:15:20;1.37;;;0.80;;
15679;SDS011;15488;48.114;11.532;2023-09-19T00:17:47;1.93;;;0.80;;
15679;SDS011;15488;48.114;11.532;2023-09-19T00:20:17;0.77;;;0.77;;
15679;SDS011;15488;48.114;11.532;2023-09-19T00:22:48;2.10;;;0.83;;
15679;SDS011;15488;48.114;11.532;2023-09-19T00:25:17;1.30;;;1.20;;
15679;SDS011;15488;48.114;11.532;2023-09-19T00:27:45;3.57;;;2.30;;
15679;SDS011;15488;48.114;11.532;2023-09-19T00:30:18;17.47;;;10.07;;
15679;SDS011;15488;48.114;11.532;2023-09-19T00:32:46;3.83;;;2.90;;
15679;SDS011;15488;48.114;11.532;2023-09-19T00:35:14;2.93;;;1.17;;
15679;SDS011;15488;48.114;11.532;2023-09-19T00:37:42;0.90;;;0.80;;
15679;SDS011;15488;48.114;11.532;2023-09-19T00:40:10;1.83;;;1.10;;
15679;SDS011;15488;48.114;11.532;2023-09-19T00:42:40;1.80;;;0.90;;
15679;SDS011;15488;48.114;11.532;2023-09-19T00:45:08;1.43;;;1.00;;
15679;SDS011;15488;48.114;11.532;2023-09-19T00:47:39;1.47;;;1.00;;
15679;SDS011;15488;48.114;11.532;2023-09-19T00:50:09;2.87;;;1.00;;
15679;SDS011;15488;48.114;11.532;2023-09-19T00:52:39;1.87;;;1.00;;
15679;SDS011;15488;48.114;11.532;2023-09-19T00:55:09;1.20;;;1.10;;
15679;SDS011;15488;48.114;11.532;2023-09-19T00:57:39;1.20;;;0.97;;
15679;SDS011;15488;48.114;11.532;2023-09-19T01:00:07;0.77;;;0.77;;
15679;SDS011;15488;48.114;11.532;2023-09-19T01:02:41;1.83;;;0.93;;
15679;SDS011;15488;48.114;11.532;2023-09-19T01:05:09;1.53;;;0.90;;
15679;SDS011;15488;48.114;11.532;2023-09-19T01:07:37;1.47;;;0.73;;
15679;SDS011;15488;48.114;11.532;2023-09-19T01:10:06;1.37;;;0.80;;
15679;SDS011;15488;48.114;11.532;2023-09-19T01:12:38;1.57;;;0.80;;
15679;SDS011;15488;48.114;11.532;2023-09-19T01:15:20;0.80;;;0.70;;
15679;SDS011;15488;48.114;11.532;2023-09-19T01:17:59;0.90;;;0.90;;
15679;SDS011;15488;48.114;11.532;2023-09-19T01:20:36;1.00;;;0.80;;
15679;SDS011;15488;48.114;11.532;2023-09-19T01:23:14;1.83;;;0.90;;
15679;SDS011;15488;48.114;11.532;2023-09-19T01:28:51;1.67;;;0.63;;
15679;SDS011;15488;48.114;11.532;2023-09-19T01:31:24;1.17;;;0.80;;
15679;SDS011;15488;48.114;11.532;2023-09-19T01:34:01;1.47;;;0.80;;
15679;SDS011;15488;48.114;11.532;2023-09-19T01:36:30;0.80;;;0.70;;
15679;SDS011;15488;48.114;11.532;2023-09-19T01:39:01;2.30;;;1.00;;
15679;SDS011;15488;48.114;11.532;2023-09-19T01:41:39;1.20;;;0.70;;
15679;SDS011;15488;48.114;11.532;2023-09-19T01:44:20;0.97;;;0.73;;
15679;SDS011;15488;48.114;11.532;2023-09-19T01:46:56;1.03;;;0.63;;
15679;SDS011;15488;48.114;11.532;2023-09-19T01:49:31;0.83;;;0.70;;
15679;SDS011;15488;48.114;11.532;2023-09-19T01:52:05;2.07;;;0.60;;
15679;SDS011;15488;48.114;11.532;2023-09-19T01:54:40;1.53;;;0.90;;
15679;SDS011;15488;48.114;11.532;2023-09-19T01:57:14;1.30;;;0.80;;
15679;SDS011;15488;48.114;11.532;2023-09-19T01:59:54;1.27;;;0.90;;
15679;SDS011;15488;48.114;11.532;2023-09-19T02:02:32;1.17;;;0.80;;
15679;SDS011;15488;48.114;11.532;2023-09-19T02:05:00;1.00;;;0.90;;
15679;SDS011;15488;48.114;11.532;2023-09-19T02:07:29;0.90;;;0.80;;
15679;SDS011;15488;48.114;11.532;2023-09-19T02:09:57;1.50;;;0.63;;
15679;SDS011;15488;48.114;11.532;2023-09-19T02:12:25;0.70;;;0.60;;
15679;SDS011;15488;48.114;11.532;2023-09-19T02:14:53;1.43;;;0.90;;
15679;SDS011;15488;48.114;11.532;2023-09-19T02:17:22;0.80;;;0.80;;
15679;SDS011;15488;48.114;11.532;2023-09-19T02:19:52;1.30;;;0.70;;
15679;SDS011;15488;48.114;11.532;2023-09-19T02:22:21;1.33;;;0.83;;
15679;SDS011;15488;48.114;11.532;2023-09-19T02:24:50;1.63;;;0.80;;
15679;SDS011;15488;48.114;11.532;2023-09-19T02:27:19;2.57;;;0.83;;
15679;SDS011;15488;48.114;11.532;2023-09-19T02:29:46;1.00;;;0.80;;
15679;SDS011;15488;48.114;11.532;2023-09-19T02:32:15;1.73;;;0.80;;
15679;SDS011;15488;48.114;11.532;2023-09-19T02:34:43;1.17;;;0.60;;
15679;SDS011;15488;48.114;11.532;2023-09-19T02:37:12;3.00;;;0.90;;
15679;SDS011;15488;48.114;11.532;2023-09-19T02:39:41;0.90;;;0.70;;
15679;SDS011;15488;48.114;11.532;2023-09-19T02:42:09;2.50;;;1.00;;
15679;SDS011;15488;48.114;11.532;2023-09-19T02:44:36;1.60;;;0.80;;
15679;SDS011;15488;48.114;11.532;2023-09-19T02:47:05;0.93;;;0.70;;
15679;SDS011;15488;48.114;11.532;2023-09-19T02:49:32;1.07;;;0.77;;
15679;SDS011;15488;48.114;11.532;2023-09-19T02:52:00;2.23;;;0.90;;
15679;SDS011;15488;48.114;11.532;2023-09-19T02:54:30;1.10;;;0.70;;
15679;SDS011;15488;48.114;11.532;2023-09-19T02:56:58;1.20;;;0.63;;
15679;SDS011;15488;48.114;11.532;2023-09-19T02:59:25;2.50;;;0.80;;
15679;SDS011;15488;48.114;11.532;2023-09-19T03:01:54;1.30;;;0.97;;
15679;SDS011;15488;48.114;11.532;2023-09-19T03:04:22;1.00;;;0.87;;
15679;SDS011;15488;48.114;11.532;2023-09-19T03:06:52;1.30;;;1.00;;
15679;SDS011;15488;48.114;11.532;2023-09-19T03:09:23;1.90;;;0.80;;
15679;SDS011;15488;48.114;11.532;2023-09-19T03:11:52;1.20;;;0.80;;
15679;SDS011;15488;48.114;11.532;2023-09-19T03:14:20;1.40;;;0.80;;
15679;SDS011;15488;48.114;11.532;2023-09-19T03:16:48;1.00;;;0.70;;
15679;SDS011;15488;48.114;11.532;2023-09-19T03:19:17;1.17;;;0.90;;
15679;SDS011;15488;48.114;11.532;2023-09-19T03:21:45;1.60;;;0.83;;
15679;SDS011;15488;48.114;11.532;2023-09-19T03:24:15;1.90;;;0.77;;
15679;SDS011;15488;48.114;11.532;2023-09-19T03:26:43;1.80;;;0.83;;
15679;SDS011;15488;48.114;11.532;2023-09-19T03:29:13;1.73;;;0.83;;
15679;SDS011;15488;48.114;11.532;2023-09-19T03:31:42;1.50;;;0.80;;
15679;SDS011;15488;48.114;11.532;2023-09-19T03:34:10;1.27;;;0.90;;
15679;SDS011;15488;48.114;11.532;2023-09-19T03:36:38;1.30;;;1.00;;
15679;SDS011;15488;48.114;11.532;2023-09-19T03:39:06;1.57;;;1.00;;
15679;SDS011;15488;48.114;11.532;2023-09-19T03:41:33;1.13;;;0.73;;
15679;SDS011;15488;48.114;11.532;2023-09-19T03:44:01;1.13;;;0.90;;
15679;SDS011;15488;48.114;11.532;2023-09-19T03:46:30;1.80;;;0.80;;
15679;SDS011;15488;48.114;11.532;2023-09-19T03:49:00;1.20;;;1.00;;
15679;SDS011;15488;48.114;11.532;2023-09-19T03:51:28;0.97;;;0.60;;
15679;SDS011;15488;48.114;11.532;2023-09-19T03:53:55;1.93;;;0.80;;
15679;SDS011;15488;48.114;11.532;2023-09-19T03:56:23;1.17;;;0.80;;
15679;SDS011;15488;48.114;11.532;2023-09-19T03:58:50;1.73;;;1.00;;
15679;SDS011;15488;48.114;11.532;2023-09-19T04:01:18;1.60;;;1.00;;
15679;SDS011;15488;48.114;11.532;2023-09-19T04:03:47;1.40;;;1.00;;
15679;SDS011;15488;48.114;11.532;2023-09-19T04:06:19;0.90;;;0.80;;
15679;SDS011;15488;48.114;11.532;2023-09-19T04:08:47;2.00;;;1.03;;
15679;SDS011;15488;48.114;11.532;2023-09-19T04:11:14;1.60;;;1.00;;
15679;SDS011;15488;48.114;11.532;2023-09-19T04:13:42;1.50;;;0.77;;
15679;SDS011;15488;48.114;11.532;2023-09-19T04:16:09;1.30;;;0.97;;
15679;SDS011;15488;48.114;11.532;2023-09-19T04:18:37;1.70;;;0.90;;
15679;SDS011;15488;48.114;11.532;2023-09-19T04:21:06;1.60;;;0.87;;
15679;SDS011;15488;48.114;11.532;2023-09-19T04:23:34;1.10;;;0.93;;
15679;SDS011;15488;48.114;11.532;2023-09-19T04:26:01;1.00;;;0.80;;
15679;SDS011;15488;48.114;11.532;2023-09-19T04:28:30;1.83;;;1.00;;
15679;SDS011;15488;48.114;11.532;2023-09-19T04:30:59;1.57;;;1.00;;
15679;SDS011;15488;48.114;11.532;2023-09-19T04:33:26;1.60;;;0.90;;
15679;SDS011;15488;48.114;11.532;2023-09-19T04:35:54;1.43;;;0.83;;
15679;SDS011;15488;48.114;11.532;2023-09-19T04:38:23;1.27;;;0.83;;
15679;SDS011;15488;48.114;11.532;2023-09-19T04:40:56;2.63;;;1.00;;
15679;SDS011;15488;48.114;11.532;2023-09-19T04:43:24;1.07;;;0.87;;
15679;SDS011;15488;48.114;11.532;2023-09-19T04:45:54;2.00;;;1.10;;
15679;SDS011;15488;48.114;11.532;2023-09-19T04:48:21;2.23;;;0.87;;
15679;SDS011;15488;48.114;11.532;2023-09-19T04:50:50;1.23;;;0.90;;
15679;SDS011;15488;48.114;11.532;2023-09-19T04:53:18;0.80;;;0.80;;
15679;SDS011;15488;48.114;11.532;2023-09-19T04:55:50;1.17;;;1.00;;
15679;SDS011;15488;48.114;11.532;2023-09-19T04:58:20;1.57;;;1.03;;
15679;SDS011;15488;48.114;11.532;2023-09-19T05:00:48;1.40;;;1.00;;
15679;SDS011;15488;48.114;11.532;2023-09-19T05:03:17;0.90;;;0.80;;
15679;SDS011;15488;48.114;11.532;2023-09-19T05:05:45;1.43;;;1.00;;
15679;SDS011;15488;48.114;11.532;2023-09-19T05:08:12;0.77;;;0.77;;
15679;SDS011;15488;48.114;11.532;2023-09-19T05:10:40;2.07;;;0.80;;
15679;SDS011;15488;48.114;11.532;2023-09-19T05:13:09;1.33;;;0.87;;
15679;SDS011;15488;48.114;11.532;2023-09-19T05:15:37;1.27;;;0.80;;
15679;SDS011;15488;48.114;11.532;2023-09-19T05:18:05;1.07;;;0.97;;
15679;SDS011;15488;48.114;11.532;2023-09-19T05:20:33;1.50;;;0.83;;
15679;SDS011;15488;48.114;11.532;2023-09-19T05:23:03;1.70;;;0.80;;
15679;SDS011;15488;48.114;11.532;2023-09-19T05:25:32;0.80;;;0.80;;
15679;SDS011;15488;48.114;11.532;2023-09-19T05:28:04;1.73;;;0.90;;
15679;SDS011;15488;48.114;11.532;2023-09-19T05:30:34;1.57;;;0.80;;
15679;SDS011;15488;48.114;11.532;2023-09-19T05:33:03;0.77;;;0.77;;
15679;SDS011;15488;48.114;11.532;2023-09-19T05:35:31;0.93;;;0.70;;
15679;SDS011;15488;48.114;11.532;2023-09-19T05:37:59;1.10;;;0.70;;
15679;SDS011;15488;48.114;11.532;2023-09-19T05:40:27;1.23;;;0.70;;
15679;SDS011;15488;48.114;11.532;2023-09-19T05:42:54;1.10;;;0.70;;
15679;SDS011;15488;48.114;11.532;2023-09-19T05:45:22;1.50;;;1.13;;
15679;SDS011;15488;48.114;11.532;2023-09-19T05:47:52;0.90;;;0.80;;
15679;SDS011;15488;48.114;11.532;2023-09-19T05:50:21;2.07;;;0.90;;
15679;SDS011;15488;48.114;11.532;2023-09-19T05:52:53;1.50;;;0.90;;
15679;SDS011;15488;48.114;11.532;2023-09-19T05:55:22;2.23;;;0.73;;
15679;SDS011;15488;48.114;11.532;2023-09-19T05:57:50;1.60;;;0.87;;
15679;SDS011;15488;48.114;11.532;2023-09-19T06:00:18;2.70;;;1.40;;
15679;SDS011;15488;48.114;11.532;2023-09-19T06:02:49;2.40;;;1.03;;
15679;SDS011;15488;48.114;11.532;2023-09-19T06:05:18;1.77;;;0.90;;
15679;SDS011;15488;48.114;11.532;2023-09-19T06:07:47;3.03;;;1.03;;
15679;SDS011;15488;48.114;11.532;2023-09-19T06:10:16;1.47;;;0.90;;
15679;SDS011;15488;48.114;11.532;2023-09-19T06:12:46;2.43;;;0.67;;
15679;SDS011;15488;48.114;11.532;2023-09-19T06:15:13;1.47;;;0.90;;
15679;SDS011;15488;48.114;11.532;2023-09-19T06:17:46;0.97;;;0.67;;
15679;SDS011;15488;48.114;11.532;2023-09-19T06:20:15;1.90;;;1.33;;
15679;SDS011;15488;48.114;11.532;2023-09-19T06:22:45;1.67;;;0.70;;
15679;SDS011;15488;48.114;11.532;2023-09-19T06:25:13;1.37;;;0.80;;
15679;SDS011;15488;48.114;11.532;2023-09-19T06:27:44;1.87;;;1.03;;
15679;SDS011;15488;48.114;11.532;2023-09-19T06:30:12;1.10;;;0.63;;
15679;SDS011;15488;48.114;11.532;2023-09-19T06:32:39;0.80;;;0.60;;
15679;SDS011;15488;48.114;11.532;2023-09-19T06:35:10;1.73;;;0.60;;
15679;SDS011;15488;48.114;11.532;2023-09-19T06:37:39;0.63;;;0.50;;
15679;SDS011;15488;48.114;11.532;2023-09-19T06:40:08;2.10;;;0.83;;
15679;SDS011;15488;48.114;11.532;2023-09-19T06:42:39;2.60;;;0.80;;
15679;SDS011;15488;48.114;11.532;2023-09-19T06:45:07;2.57;;;0.70;;
15679;SDS011;15488;48.114;11.532;2023-09-19T06:47:38;0.97;;;0.70;;
15679;SDS011;15488;48.114;11.532;2023-09-19T06:50:06;0.80;;;0.70;;
15679;SDS011;15488;48.114;11.532;2023-09-19T06:52:34;1.03;;;0.63;;
15679;SDS011;15488;48.114;11.532;2023-09-19T06:55:04;1.00;;;0.70;;
15679;SDS011;15488;48.114;11.532;2023-09-19T06:57:32;1.67;;;0.70;;
15679;SDS011;15488;48.114;11.532;2023-09-19T07:00:00;0.90;;;0.70;;
15679;SDS011;15488;48.114;11.532;2023-09-19T07:02:32;1.30;;;0.77;;
15679;SDS011;15488;48.114;11.532;2023-09-19T07:05:00;1.40;;;0.70;;
15679;SDS011;15488;48.114;11.532;2023-09-19T07:07:27;1.03;;;0.67;;
15679;SDS011;15488;48.114;11.532;2023-09-19T07:09:55;1.33;;;0.70;;
15679;SDS011;15488;48.114;11.532;2023-09-19T07:12:24;1.57;;;0.70;;
15679;SDS011;15488;48.114;11.532;2023-09-19T07:14:51;1.53;;;0.80;;
15679;SDS011;15488;48.114;11.532;2023-09-19T07:17:19;1.53;;;0.80;;
15679;SDS011;15488;48.114;11.532;2023-09-19T07:19:49;1.70;;;0.60;;
15679;SDS011;15488;48.114;11.532;2023-09-19T07:22:16;0.60;;;0.60;;
15679;SDS011;15488;48.114;11.532;2023-09-19T07:24:44;1.03;;;0.80;;
15679;SDS011;15488;48.114;11.532;2023-09-19T07:27:12;0.97;;;0.70;;
15679;SDS011;15488;48.114;11.532;2023-09-19T07:29:40;1.57;;;0.70;;
15679;SDS011;15488;48.114;11.532;2023-09-19T07:32:08;1.13;;;0.80;;
15679;SDS011;15488;48.114;11.532;2023-09-19T07:34:37;1.00;;;0.80;;
15679;SDS011;15488;48.114;11.532;2023-09-19T07:37:05;1.20;;;0.77;;
15679;SDS011;15488;48.114;11.532;2023-09-19T07:39:34;1.20;;;0.90;;
15679;SDS011;15488;48.114;11.532;2023-09-19T07:42:02;1.30;;;0.90;;
15679;SDS011;15488;48.114;11.532;2023-09-19T07:44:32;1.30;;;0.90;;
15679;SDS011;15488;48.114;11.532;2023-09-19T07:47:02;1.13;;;0.70;;
15679;SDS011;15488;48.114;11.532;2023-09-19T07:49:30;0.97;;;0.80;;
15679;SDS011;15488;48.114;11.532;2023-09-19T07:51:57;1.17;;;0.70;;
15679;SDS011;15488;48.114;11.532;2023-09-19T07:54:25;1.40;;;0.83;;
15679;SDS011;15488;48.114;11.532;2023-09-19T07:56:55;0.97;;;0.63;;
15679;SDS011;15488;48.114;11.532;2023-09-19T07:59:23;2.20;;;0.83;;
15679;SDS011;15488;48.114;11.532;2023-09-19T08:01:50;1.47;;;0.90;;
15679;SDS011;15488;48.114;11.532;2023-09-19T08:04:19;2.87;;;1.10;;
15679;SDS011;15488;48.114;11.532;2023-09-19T08:06:47;1.50;;;0.80;;
15679;SDS011;15488;48.114;11.532;2023-09-19T08:09:17;1.47;;;0.90;;
15679;SDS011;15488;48.114;11.532;2023-09-19T08:11:45;1.43;;;0.70;;
15679;SDS011;15488;48.114;11.532;2023-09-19T08:14:13;2.60;;;0.80;;
15679;SDS011;15488;48.114;11.532;2023-09-19T08:16:40;1.70;;;0.97;;
15679;SDS011;15488;48.114;11.532;2023-09-19T08:19:09;1.13;;;1.00;;
15679;SDS011;15488;48.114;11.532;2023-09-19T08:21:38;1.30;;;1.00;;
15679;SDS011;15488;48.114;11.532;2023-09-19T08:24:05;2.03;;;0.90;;
15679;SDS011;15488;48.114;11.532;2023-09-19T08:26:34;1.57;;;1.20;;
15679;SDS011;15488;48.114;11.532;2023-09-19T08:29:03;1.27;;;1.00;;
15679;SDS011;15488;48.114;11.532;2023-09-19T08:31:32;1.23;;;0.70;;
15679;SDS011;15488;48.114;11.532;2023-09-19T08:34:00;1.67;;;0.77;;
15679;SDS011;15488;48.114;11.532;2023-09-19T08:36:27;1.73;;;0.97;;
15679;SDS011;15488;48.114;11.532;2023-09-19T08:38:57;1.20;;;0.80;;
15679;SDS011;15488;48.114;11.532;2023-09-19T08:41:25;1.80;;;0.60;;
15679;SDS011;15488;48.114;11.532;2023-09-19T08:43:52;1.43;;;0.87;;
15679;SDS011;15488;48.114;11.532;2023-09-19T08:46:20;1.80;;;0.80;;
15679;SDS011;15488;48.114;11.532;2023-09-19T08:48:51;1.00;;;0.70;;
15679;SDS011;15488;48.114;11.532;2023-09-19T08:51:25;1.73;;;0.90;;
15679;SDS011;15488;48.114;11.532;2023-09-19T08:54:01;0.80;;;0.70;;
15679;SDS011;15488;48.114;11.532;2023-09-19T08:56:33;1.53;;;0.70;;
15679;SDS011;15488;48.114;11.532;2023-09-19T08:59:04;1.10;;;0.70;;
15679;SDS011;15488;48.114;11.532;2023-09-19T09:01:33;1.70;;;0.70;;
15679;SDS011;15488;48.114;11.532;2023-09-19T09:04:02;2.23;;;0.70;;
15679;SDS011;15488;48.114;11.532;2023-09-19T09:06:34;0.83;;;0.67;;
15679;SDS011;15488;48.114;11.532;2023-09-19T09:09:04;0.80;;;0.80;;
15679;SDS011;15488;48.114;11.532;2023-09-19T09:11:32;1.50;;;0.97;;
15679;SDS011;15488;48.114;11.532;2023-09-19T09:14:00;0.97;;;0.80;;
15679;SDS011;15488;48.114;11.532;2023-09-19T09:16:27;1.00;;;0.80;;
15679;SDS011;15488;48.114;11.532;2023-09-19T09:18:57;1.53;;;0.70;;
15679;SDS011;15488;48.114;11.532;2023-09-19T09:21:24;1.50;;;0.60;;
15679;SDS011;15488;48.114;11.532;2023-09-19T09:23:53;1.30;;;0.83;;
15679;SDS011;15488;48.114;11.532;2023-09-19T09:26:35;2.07;;;0.80;;
15679;SDS011;15488;48.114;11.532;2023-09-19T09:29:09;1.37;;;1.00;;
15679;SDS011;15488;48.114;11.532;2023-09-19T09:31:36;1.17;;;1.00;;
15679;SDS011;15488;48.114;11.532;2023-09-19T09:34:04;3.37;;;1.97;;
15679;SDS011;15488;48.114;11.532;2023-09-19T09:36:35;2.77;;;1.93;;
15679;SDS011;15488;48.114;11.532;2023-09-19T09:39:05;1.73;;;1.10;;
15679;SDS011;15488;48.114;11.532;2023-09-19T09:41:44;1.93;;;0.90;;
15679;SDS011;15488;48.114;11.532;2023-09-19T09:44:12;3.00;;;1.10;;
15679;SDS011;15488;48.114;11.532;2023-09-19T09:46:43;2.50;;;0.80;;
15679;SDS011;15488;48.114;11.532;2023-09-19T09:49:40;1.53;;;0.90;;
15679;SDS011;15488;48.114;11.532;2023-09-19T09:52:19;1.33;;;0.70;;
15679;SDS011;15488;48.114;11.532;2023-09-19T09:54:58;1.80;;;0.77;;
15679;SDS011;15488;48.114;11.532;2023-09-19T09:57:31;1.87;;;1.00;;
15679;SDS011;15488;48.114;11.532;2023-09-19T10:00:00;1.60;;;0.70;;
15679;SDS011;15488;48.114;11.532;2023-09-19T10:02:41;1.13;;;0.90;;
15679;SDS011;15488;48.114;11.532;2023-09-19T10:05:12;2.30;;;0.90;;
15679;SDS011;15488;48.114;11.532;2023-09-19T10:07:45;1.20;;;0.80;;
15679;SDS011;15488;48.114;11.532;2023-09-19T10:10:15;1.23;;;0.90;;
15679;SDS011;15488;48.114;11.532;2023-09-19T10:13:04;0.93;;;0.77;;
15679;SDS011;15488;48.114;11.532;2023-09-19T10:15:37;1.00;;;0.90;;
15679;SDS011;15488;48.114;11.532;2023-09-19T10:18:06;1.30;;;1.03;;
15679;SDS011;15488;48.114;11.532;2023-09-19T10:20:42;2.07;;;1.10;;
15679;SDS011;15488;48.114;11.532;2023-09-19T10:23:11;1.77;;;1.00;;
15679;SDS011;15488;48.114;11.532;2023-09-19T10:25:40;1.73;;;0.80;;
15679;SDS011;15488;48.114;11.532;2023-09-19T10:28:12;1.07;;;0.80;;
15679;SDS011;15488;48.114;11.532;2023-09-19T10:30:41;1.00;;;1.00;;
15679;SDS011;15488;48.114;11.532;2023-09-19T10:33:10;0.90;;;0.80;;
15679;SDS011;15488;48.114;11.532;2023-09-19T10:35:39;0.97;;;0.90;;
15679;SDS011;15488;48.114;11.532;2023-09-19T10:38:09;1.00;;;0.80;;
15679;SDS011;15488;48.114;11.532;2023-09-19T10:40:38;1.07;;;0.90;;
15679;SDS011;15488;48.114;11.532;2023-09-19T10:43:11;0.80;;;0.70;;
15679;SDS011;15488;48.114;11.532;2023-09-19T10:45:44;1.07;;;0.90;;
15679;SDS011;15488;48.114;11.532;2023-09-19T10:48:14;1.13;;;1.03;;
15679;SDS011;15488;48.114;11.532;2023-09-19T10:50:45;2.03;;;1.00;;
15679;SDS011;15488;48.114;11.532;2023-09-19T10:53:16;1.40;;;1.17;;
15679;SDS011;15488;48.114;11.532;2023-09-19T10:55:48;0.90;;;0.90;;
15679;SDS011;15488;48.114;11.532;2023-09-19T10:58:28;1.07;;;0.90;;
15679;SDS011;15488;48.114;11.532;2023-09-19T11:01:00;1.90;;;1.10;;
15679;SDS011;15488;48.114;11.532;2023-09-19T11:03:37;1.10;;;1.00;;
15679;SDS011;15488;48.114;11.532;2023-09-19T11:06:09;1.37;;;0.80;;
15679;SDS011;15488;48.114;11.532;2023-09-19T11:08:54;1.87;;;1.00;;
15679;SDS011;15488;48.114;11.532;2023-09-19T11:11:44;0.93;;;0.90;;
15679;SDS011;15488;48.114;11.532;2023-09-19T11:23:19;1.97;;;1.03;;
15679;SDS011;15488;48.114;11.532;2023-09-19T11:25:56;1.23;;;0.80;;
15679;SDS011;15488;48.114;11.532;2023-09-19T11:40:44;0.70;;;0.70;;
15679;SDS011;15488;48.114;11.532;2023-09-19T11:43:32;1.40;;;0.70;;
15679;SDS011;15488;48.114;11.532;2023-09-19T11:46:01;3.33;;;0.70;;
15679;SDS011;15488;48.114;11.532;2023-09-19T11:48:31;1.60;;;0.70;;
15679;SDS011;15488;48.114;11.532;2023-09-19T11:51:12;1.33;;;0.67;;
15679;SDS011;15488;48.114;11.532;2023-09-19T11:53:51;2.20;;;0.70;;
15679;SDS011;15488;48.114;11.532;2023-09-19T11:56:20;1.53;;;1.00;;
15679;SDS011;15488;48.114;11.532;2023-09-19T11:58:49;2.17;;;0.93;;
15679;SDS011;15488;48.114;11.532;2023-09-19T12:01:24;0.60;;;0.60;;
15679;SDS011;15488;48.114;11.532;2023-09-19T12:03:56;1.53;;;0.60;;
15679;SDS011;15488;48.114;11.532;2023-09-19T12:06:25;0.90;;;0.80;;
15679;SDS011;15488;48.114;11.532;2023-09-19T12:08:54;1.87;;;1.00;;
15679;SDS011;15488;48.114;11.532;2023-09-19T12:11:26;1.77;;;1.13;;
15679;SDS011;15488;48.114;11.532;2023-09-19T12:13:58;1.37;;;0.80;;
15679;SDS011;15488;48.114;11.532;2023-09-19T12:16:26;0.70;;;0.70;;
15679;SDS011;15488;48.114;11.532;2023-09-19T12:18:57;1.00;;;0.90;;
15679;SDS011;15488;48.114;11.532;2023-09-19T12:21:43;1.73;;;1.08;;
15679;SDS011;15488;48.114;11.532;2023-09-19T12:24:11;0.70;;;0.70;;
15679;SDS011;15488;48.114;11.532;2023-09-19T12:26:44;0.80;;;0.80;;
15679;SDS011;15488;48.114;11.532;2023-09-19T12:29:17;1.65;;;0.70;;
15679;SDS011;15488;48.114;11.532;2023-09-19T12:31:52;0.85;;;0.70;;
15679;SDS011;15488;48.114;11.532;2023-09-19T12:34:24;0.70;;;0.70;;
15679;SDS011;15488;48.114;11.532;2023-09-19T12:37:09;0.68;;;0.68;;
15679;SDS011;15488;48.114;11.532;2023-09-19T12:39:39;2.47;;;0.80;;
15679;SDS011;15488;48.114;11.532;2023-09-19T12:42:09;1.45;;;0.70;;
15679;SDS011;15488;48.114;11.532;2023-09-19T12:44:42;1.10;;;0.85;;
15679;SDS011;15488;48.114;11.532;2023-09-19T12:47:12;1.23;;;0.90;;
15679;SDS011;15488;48.114;11.532;2023-09-19T12:52:44;1.13;;;1.02;;
15679;SDS011;15488;48.114;11.532;2023-09-19T12:55:20;2.42;;;1.48;;
15679;SDS011;15488;48.114;11.532;2023-09-19T12:57:58;1.33;;;1.30;;
15679;SDS011;15488;48.114;11.532;2023-09-19T13:00:32;1.60;;;1.50;;
15679;SDS011;15488;48.114;11.532;2023-09-19T13:03:14;1.90;;;1.80;;
15679;SDS011;15488;48.114;11.532;2023-09-19T13:05:52;2.10;;;1.90;;
15679;SDS011;15488;48.114;11.532;2023-09-19T13:08:24;2.15;;;2.05;;
15679;SDS011;15488;48.114;11.532;2023-09-19T13:13:46;3.03;;;2.83;;
15679;SDS011;15488;48.114;11.532;2023-09-19T13:16:19;3.20;;;3.00;;
15679;SDS011;15488;48.114;11.532;2023-09-19T13:18:48;4.15;;;3.85;;
15679;SDS011;15488;48.114;11.532;2023-09-19T13:21:27;3.40;;;3.30;;
15679;SDS011;15488;48.114;11.532;2023-09-19T13:26:48;4.28;;;4.07;;
15679;SDS011;15488;48.114;11.532;2023-09-19T13:29:15;3.47;;;3.38;;
15679;SDS011;15488;48.114;11.532;2023-09-19T13:31:45;3.53;;;3.42;;
15679;SDS011;15488;48.114;11.532;2023-09-19T13:34:13;4.72;;;4.53;;
15679;SDS011;15488;48.114;11.532;2023-09-19T13:36:44;5.00;;;4.80;;
15679;SDS011;15488;48.114;11.532;2023-09-19T13:39:13;4.47;;;4.28;;
15679;SDS011;15488;48.114;11.532;2023-09-19T13:41:41;4.75;;;4.45;;
15679;SDS011;15488;48.114;11.532;2023-09-19T13:44:11;5.63;;;5.35;;
15679;SDS011;15488;48.114;11.532;2023-09-19T13:46:39;5.47;;;5.28;;
15679;SDS011;15488;48.114;11.532;2023-09-19T13:49:10;5.05;;;4.75;;
15679;SDS011;15488;48.114;11.532;2023-09-19T13:51:38;5.10;;;4.90;;
15679;SDS011;15488;48.114;11.532;2023-09-19T13:54:10;4.75;;;4.57;;
15679;SDS011;15488;48.114;11.532;2023-09-19T13:56:37;5.28;;;5.07;;
15679;SDS011;15488;48.114;11.532;2023-09-19T13:59:05;5.13;;;4.93;;
15679;SDS011;15488;48.114;11.532;2023-09-19T14:01:32;5.38;;;5.18;;
15679;SDS011;15488;48.114;11.532;2023-09-19T14:04:00;5.15;;;4.95;;
15679;SDS011;15488;48.114;11.532;2023-09-19T14:06:27;4.88;;;4.68;;
15679;SDS011;15488;48.114;11.532;2023-09-19T14:08:55;4.75;;;4.45;;
15679;SDS011;15488;48.114;11.532;2023-09-19T14:11:24;4.38;;;4.28;;
15679;SDS011;15488;48.114;11.532;2023-09-19T14:13:52;4.68;;;4.47;;
15679;SDS011;15488;48.114;11.532;2023-09-19T14:16:19;4.35;;;4.25;;
15679;SDS011;15488;48.114;11.532;2023-09-19T14:18:47;4.47;;;4.28;;
15679;SDS011;15488;48.114;11.532;2023-09-19T14:21:15;4.25;;;4.05;;
15679;SDS011;15488;48.114;11.532;2023-09-19T14:23:44;4.32;;;4.13;;
15679;SDS011;15488;48.114;11.532;2023-09-19T14:26:11;4.47;;;4.28;;
15679;SDS011;15488;48.114;11.532;2023-09-19T14:28:40;4.32;;;4.15;;
15679;SDS011;15488;48.114;11.532;2023-09-19T14:31:08;4.90;;;4.70;;
15679;SDS011;15488;48.114;11.532;2023-09-19T14:33:36;4.60;;;4.40;;
15679;SDS011;15488;48.114;11.532;2023-09-19T14:36:05;4.60;;;4.40;;
15679;SDS011;15488;48.114;11.532;2023-09-19T14:38:34;4.18;;;3.97;;
15679;SDS011;15488;48.114;11.532;2023-09-19T14:41:02;4.05;;;3.95;;
15679;SDS011;15488;48.114;11.532;2023-09-19T14:43:31;3.33;;;3.22;;
15679;SDS011;15488;48.114;11.532;2023-09-19T14:46:03;2.42;;;2.33;;
15679;SDS011;15488;48.114;11.532;2023-09-19T14:48:32;2.33;;;2.15;;
15679;SDS011;15488;48.114;11.532;2023-09-19T14:51:03;2.15;;;2.05;;
15679;SDS011;15488;48.114;11.532;2023-09-19T14:53:31;2.50;;;2.40;;
15679;SDS011;15488;48.114;11.532;2023-09-19T14:55:59;2.55;;;2.35;;
15679;SDS011;15488;48.114;11.532;2023-09-19T14:58:28;2.47;;;2.38;;
15679;SDS011;15488;48.114;11.532;2023-09-19T15:01:02;2.30;;;2.20;;
15679;SDS011;15488;48.114;11.532;2023-09-19T15:03:31;2.40;;;2.30;;
15679;SDS011;15488;48.114;11.532;2023-09-19T15:06:02;2.70;;;2.60;;
15679;SDS011;15488;48.114;11.532;2023-09-19T15:08:31;2.20;;;2.10;;
15679;SDS011;15488;48.114;11.532;2023-09-19T15:10:59;2.13;;;2.03;;
15679;SDS011;15488;48.114;11.532;2023-09-19T15:13:29;2.33;;;2.22;;
15679;SDS011;15488;48.114;11.532;2023-09-19T15:15:58;2.33;;;2.22;;
15679;SDS011;15488;48.114;11.532;2023-09-19T15:18:28;2.35;;;2.17;;
15679;SDS011;15488;48.114;11.532;2023-09-19T15:20:56;2.15;;;2.05;;
15679;SDS011;15488;48.114;11.532;2023-09-19T15:23:26;2.38;;;2.10;;